sensor_id;sensor_type;location;lat;lon;timestamp;P1;durP1;ratioP1;P2;durP2;ratioP2
80379;SDS011;69690;48.158;17.134;2023-07-20T00:05:00;5.85;;;5.22;;
80379;SDS011;69690;48.158;17.134;2023-07-20T00:10:01;5.18;;;4.65;;
80379;SDS011;69690;48.158;17.134;2023-07-20T00:15:02;5.05;;;4.65;;
80379;SDS011;69690;48.158;17.134;2023-07-20T00:20:04;4.18;;;3.78;;
80379;SDS011;69690;48.158;17.134;2023-07-20T00:25:07;4.57;;;3.95;;
80379;SDS011;69690;48.158;17.134;2023-07-20T00:30:09;4.50;;;4.10;;
80379;SDS011;69690;48.158;17.134;2023-07-20T00:35:11;5.85;;;4.65;;
80379;SDS011;69690;48.158;17.134;2023-07-20T00:40:12;4.30;;;3.90;;
80379;SDS011;69690;48.158;17.134;2023-07-20T00:45:13;5.18;;;4.00;;
80379;SDS011;69690;48.158;17.134;2023-07-20T00:50:15;6.68;;;6.18;;
80379;SDS011;69690;48.158;17.134;2023-07-20T00:55:18;6.78;;;5.72;;
80379;SDS011;69690;48.158;17.134;2023-07-20T01:00:20;4.57;;;3.70;;
80379;SDS011;69690;48.158;17.134;2023-07-20T01:05:21;4.12;;;3.72;;
80379;SDS011;69690;48.158;17.134;2023-07-20T01:10:44;4.45;;;4.05;;
80379;SDS011;69690;48.158;17.134;2023-07-20T01:16:00;9.73;;;5.35;;
80379;SDS011;69690;48.158;17.134;2023-07-20T01:21:03;4.97;;;4.25;;
80379;SDS011;69690;48.158;17.134;2023-07-20T01:26:22;4.75;;;4.18;;
80379;SDS011;69690;48.158;17.134;2023-07-20T01:31:44;4.53;;;4.18;;
80379;SDS011;69690;48.158;17.134;2023-07-20T01:36:45;5.00;;;4.50;;
80379;SDS011;69690;48.158;17.134;2023-07-20T01:41:48;6.10;;;4.55;;
80379;SDS011;69690;48.158;17.134;2023-07-20T01:46:49;6.05;;;4.55;;
80379;SDS011;69690;48.158;17.134;2023-07-20T01:51:51;5.05;;;4.62;;
80379;SDS011;69690;48.158;17.134;2023-07-20T01:56:52;6.87;;;4.43;;
80379;SDS011;69690;48.158;17.134;2023-07-20T02:01:53;6.60;;;4.78;;
80379;SDS011;69690;48.158;17.134;2023-07-20T02:06:54;5.18;;;4.30;;
80379;SDS011;69690;48.158;17.134;2023-07-20T02:11:57;4.93;;;4.50;;
80379;SDS011;69690;48.158;17.134;2023-07-20T02:16:58;4.93;;;4.43;;
80379;SDS011;69690;48.158;17.134;2023-07-20T02:22:01;4.97;;;4.47;;
80379;SDS011;69690;48.158;17.134;2023-07-20T02:27:02;5.05;;;4.40;;
80379;SDS011;69690;48.158;17.134;2023-07-20T02:32:04;4.72;;;4.32;;
80379;SDS011;69690;48.158;17.134;2023-07-20T02:37:06;5.62;;;4.68;;
80379;SDS011;69690;48.158;17.134;2023-07-20T02:42:07;4.80;;;4.40;;
80379;SDS011;69690;48.158;17.134;2023-07-20T02:47:08;5.03;;;4.53;;
80379;SDS011;69690;48.158;17.134;2023-07-20T02:52:10;5.85;;;4.60;;
80379;SDS011;69690;48.158;17.134;2023-07-20T02:57:11;4.78;;;4.37;;
80379;SDS011;69690;48.158;17.134;2023-07-20T03:02:13;5.00;;;4.50;;
80379;SDS011;69690;48.158;17.134;2023-07-20T03:07:14;5.25;;;4.75;;
80379;SDS011;69690;48.158;17.134;2023-07-20T03:12:18;6.75;;;4.95;;
80379;SDS011;69690;48.158;17.134;2023-07-20T03:17:19;5.20;;;4.70;;
80379;SDS011;69690;48.158;17.134;2023-07-20T03:22:21;8.45;;;4.82;;
80379;SDS011;69690;48.158;17.134;2023-07-20T03:27:22;5.55;;;4.68;;
80379;SDS011;69690;48.158;17.134;2023-07-20T03:32:24;5.78;;;5.28;;
80379;SDS011;69690;48.158;17.134;2023-07-20T03:37:25;6.50;;;4.85;;
80379;SDS011;69690;48.158;17.134;2023-07-20T03:42:27;5.25;;;4.75;;
80379;SDS011;69690;48.158;17.134;2023-07-20T03:52:49;7.05;;;5.43;;
80379;SDS011;69690;48.158;17.134;2023-07-20T03:57:51;4.93;;;4.43;;
80379;SDS011;69690;48.158;17.134;2023-07-20T04:02:52;5.37;;;4.87;;
80379;SDS011;69690;48.158;17.134;2023-07-20T04:07:54;6.55;;;4.45;;
80379;SDS011;69690;48.158;17.134;2023-07-20T04:12:55;5.62;;;4.62;;
80379;SDS011;69690;48.158;17.134;2023-07-20T04:17:57;5.05;;;4.55;;
80379;SDS011;69690;48.158;17.134;2023-07-20T04:23:00;7.40;;;4.68;;
80379;SDS011;69690;48.158;17.134;2023-07-20T04:28:01;5.18;;;4.78;;
80379;SDS011;69690;48.158;17.134;2023-07-20T04:33:03;5.30;;;4.32;;
80379;SDS011;69690;48.158;17.134;2023-07-20T04:38:05;5.97;;;4.72;;
80379;SDS011;69690;48.158;17.134;2023-07-20T04:43:06;7.50;;;4.30;;
80379;SDS011;69690;48.158;17.134;2023-07-20T04:48:11;7.20;;;4.05;;
80379;SDS011;69690;48.158;17.134;2023-07-20T04:53:15;5.25;;;4.50;;
80379;SDS011;69690;48.158;17.134;2023-07-20T04:58:17;5.32;;;4.82;;
80379;SDS011;69690;48.158;17.134;2023-07-20T05:03:19;4.70;;;4.30;;
80379;SDS011;69690;48.158;17.134;2023-07-20T05:08:21;5.57;;;4.40;;
80379;SDS011;69690;48.158;17.134;2023-07-20T05:13:23;7.65;;;3.92;;
80379;SDS011;69690;48.158;17.134;2023-07-20T05:18:24;5.28;;;4.12;;
80379;SDS011;69690;48.158;17.134;2023-07-20T05:23:26;4.37;;;3.60;;
80379;SDS011;69690;48.158;17.134;2023-07-20T05:28:28;5.60;;;3.45;;
80379;SDS011;69690;48.158;17.134;2023-07-20T05:33:29;4.22;;;3.33;;
80379;SDS011;69690;48.158;17.134;2023-07-20T05:38:30;5.10;;;3.72;;
80379;SDS011;69690;48.158;17.134;2023-07-20T05:43:32;4.30;;;3.42;;
80379;SDS011;69690;48.158;17.134;2023-07-20T05:48:34;4.12;;;3.83;;
80379;SDS011;69690;48.158;17.134;2023-07-20T05:53:35;4.50;;;3.50;;
80379;SDS011;69690;48.158;17.134;2023-07-20T05:58:37;3.85;;;3.55;;
80379;SDS011;69690;48.158;17.134;2023-07-20T06:03:38;6.53;;;3.92;;
80379;SDS011;69690;48.158;17.134;2023-07-20T06:08:39;4.93;;;3.83;;
80379;SDS011;69690;48.158;17.134;2023-07-20T06:13:41;4.07;;;3.70;;
80379;SDS011;69690;48.158;17.134;2023-07-20T06:18:44;3.87;;;3.47;;
80379;SDS011;69690;48.158;17.134;2023-07-20T06:23:46;4.90;;;3.60;;
80379;SDS011;69690;48.158;17.134;2023-07-20T06:28:47;3.60;;;3.22;;
80379;SDS011;69690;48.158;17.134;2023-07-20T06:33:48;3.60;;;3.20;;
80379;SDS011;69690;48.158;17.134;2023-07-20T06:38:49;3.60;;;3.30;;
80379;SDS011;69690;48.158;17.134;2023-07-20T06:43:53;6.22;;;3.37;;
80379;SDS011;69690;48.158;17.134;2023-07-20T06:48:58;3.40;;;3.10;;
80379;SDS011;69690;48.158;17.134;2023-07-20T06:53:59;5.30;;;3.80;;
80379;SDS011;69690;48.158;17.134;2023-07-20T06:59:02;3.47;;;3.15;;
80379;SDS011;69690;48.158;17.134;2023-07-20T07:04:05;3.42;;;2.92;;
80379;SDS011;69690;48.158;17.134;2023-07-20T07:09:07;4.78;;;3.20;;
80379;SDS011;69690;48.158;17.134;2023-07-20T07:14:08;4.15;;;3.03;;
80379;SDS011;69690;48.158;17.134;2023-07-20T07:19:10;3.15;;;2.87;;
80379;SDS011;69690;48.158;17.134;2023-07-20T07:24:11;3.25;;;2.80;;
80379;SDS011;69690;48.158;17.134;2023-07-20T07:29:12;6.25;;;3.20;;
80379;SDS011;69690;48.158;17.134;2023-07-20T07:34:13;3.30;;;2.97;;
80379;SDS011;69690;48.158;17.134;2023-07-20T07:39:14;3.22;;;2.92;;
80379;SDS011;69690;48.158;17.134;2023-07-20T07:44:18;3.72;;;2.90;;
80379;SDS011;69690;48.158;17.134;2023-07-20T07:49:19;3.55;;;2.90;;
80379;SDS011;69690;48.158;17.134;2023-07-20T07:54:20;3.35;;;2.90;;
80379;SDS011;69690;48.158;17.134;2023-07-20T07:59:22;3.75;;;2.80;;
80379;SDS011;69690;48.158;17.134;2023-07-20T08:04:23;3.03;;;2.70;;
80379;SDS011;69690;48.158;17.134;2023-07-20T08:09:24;3.67;;;3.37;;
80379;SDS011;69690;48.158;17.134;2023-07-20T08:14:29;3.50;;;3.00;;
80379;SDS011;69690;48.158;17.134;2023-07-20T08:19:31;3.22;;;2.90;;
80379;SDS011;69690;48.158;17.134;2023-07-20T08:24:32;3.50;;;3.20;;
80379;SDS011;69690;48.158;17.134;2023-07-20T08:29:34;3.95;;;3.08;;
80379;SDS011;69690;48.158;17.134;2023-07-20T08:34:36;4.15;;;3.12;;
80379;SDS011;69690;48.158;17.134;2023-07-20T08:39:38;3.53;;;3.00;;
80379;SDS011;69690;48.158;17.134;2023-07-20T08:44:39;5.53;;;2.95;;
80379;SDS011;69690;48.158;17.134;2023-07-20T08:49:43;3.35;;;3.08;;
80379;SDS011;69690;48.158;17.134;2023-07-20T08:54:45;4.68;;;3.22;;
80379;SDS011;69690;48.158;17.134;2023-07-20T08:59:47;4.82;;;3.10;;
80379;SDS011;69690;48.158;17.134;2023-07-20T09:04:50;4.35;;;2.92;;
80379;SDS011;69690;48.158;17.134;2023-07-20T09:09:56;5.65;;;3.05;;
80379;SDS011;69690;48.158;17.134;2023-07-20T09:14:58;4.25;;;3.47;;
80379;SDS011;69690;48.158;17.134;2023-07-20T09:20:03;3.72;;;3.00;;
80379;SDS011;69690;48.158;17.134;2023-07-20T09:25:11;5.75;;;4.20;;
80379;SDS011;69690;48.158;17.134;2023-07-20T09:30:15;4.93;;;3.25;;
80379;SDS011;69690;48.158;17.134;2023-07-20T09:35:19;5.78;;;3.12;;
80379;SDS011;69690;48.158;17.134;2023-07-20T09:40:22;3.00;;;2.70;;
80379;SDS011;69690;48.158;17.134;2023-07-20T09:45:23;4.90;;;3.10;;
80379;SDS011;69690;48.158;17.134;2023-07-20T09:50:24;2.92;;;2.72;;
80379;SDS011;69690;48.158;17.134;2023-07-20T09:55:26;4.90;;;3.35;;
80379;SDS011;69690;48.158;17.134;2023-07-20T10:00:27;3.20;;;2.90;;
80379;SDS011;69690;48.158;17.134;2023-07-20T10:05:29;5.95;;;5.65;;
80379;SDS011;69690;48.158;17.134;2023-07-20T10:10:35;6.95;;;6.47;;
80379;SDS011;69690;48.158;17.134;2023-07-20T10:15:43;6.72;;;6.25;;
80379;SDS011;69690;48.158;17.134;2023-07-20T10:21:03;3.08;;;2.80;;
80379;SDS011;69690;48.158;17.134;2023-07-20T10:26:07;4.62;;;2.97;;
80379;SDS011;69690;48.158;17.134;2023-07-20T10:31:11;6.05;;;3.20;;
80379;SDS011;69690;48.158;17.134;2023-07-20T10:36:14;3.80;;;2.90;;
80379;SDS011;69690;48.158;17.134;2023-07-20T10:41:19;3.00;;;2.70;;
80379;SDS011;69690;48.158;17.134;2023-07-20T10:46:43;4.32;;;3.67;;
80379;SDS011;69690;48.158;17.134;2023-07-20T10:51:47;4.75;;;3.17;;
80379;SDS011;69690;48.158;17.134;2023-07-20T10:56:49;4.25;;;3.90;;
80379;SDS011;69690;48.158;17.134;2023-07-20T11:01:54;6.20;;;3.40;;
80379;SDS011;69690;48.158;17.134;2023-07-20T11:07:00;3.97;;;3.72;;
80379;SDS011;69690;48.158;17.134;2023-07-20T11:17:14;4.05;;;3.65;;
80379;SDS011;69690;48.158;17.134;2023-07-20T11:22:20;4.07;;;2.97;;
80379;SDS011;69690;48.158;17.134;2023-07-20T11:27:22;3.70;;;3.40;;
80379;SDS011;69690;48.158;17.134;2023-07-20T11:32:23;3.67;;;2.60;;
80379;SDS011;69690;48.158;17.134;2023-07-20T11:37:25;4.68;;;3.37;;
80379;SDS011;69690;48.158;17.134;2023-07-20T11:42:26;6.50;;;4.20;;
80379;SDS011;69690;48.158;17.134;2023-07-20T11:47:29;3.85;;;3.30;;
80379;SDS011;69690;48.158;17.134;2023-07-20T11:52:30;3.15;;;2.95;;
80379;SDS011;69690;48.158;17.134;2023-07-20T11:57:32;3.00;;;2.80;;
80379;SDS011;69690;48.158;17.134;2023-07-20T12:02:33;4.47;;;2.70;;
80379;SDS011;69690;48.158;17.134;2023-07-20T12:07:35;3.58;;;2.80;;
80379;SDS011;69690;48.158;17.134;2023-07-20T12:12:37;3.67;;;3.20;;
80379;SDS011;69690;48.158;17.134;2023-07-20T12:17:41;3.10;;;2.90;;
80379;SDS011;69690;48.158;17.134;2023-07-20T12:22:47;3.25;;;2.95;;
80379;SDS011;69690;48.158;17.134;2023-07-20T12:27:49;3.60;;;2.90;;
80379;SDS011;69690;48.158;17.134;2023-07-20T12:32:50;4.28;;;2.78;;
80379;SDS011;69690;48.158;17.134;2023-07-20T12:37:51;2.90;;;2.70;;
80379;SDS011;69690;48.158;17.134;2023-07-20T12:42:54;3.87;;;2.83;;
80379;SDS011;69690;48.158;17.134;2023-07-20T12:47:56;3.03;;;2.62;;
80379;SDS011;69690;48.158;17.134;2023-07-20T12:52:57;3.40;;;3.10;;
80379;SDS011;69690;48.158;17.134;2023-07-20T12:57:58;4.97;;;3.08;;
80379;SDS011;69690;48.158;17.134;2023-07-20T13:02:59;2.90;;;2.47;;
80379;SDS011;69690;48.158;17.134;2023-07-20T13:08:05;5.78;;;3.83;;
80379;SDS011;69690;48.158;17.134;2023-07-20T13:13:06;3.35;;;3.00;;
80379;SDS011;69690;48.158;17.134;2023-07-20T13:18:08;5.68;;;2.92;;
80379;SDS011;69690;48.158;17.134;2023-07-20T13:23:09;5.50;;;3.03;;
80379;SDS011;69690;48.158;17.134;2023-07-20T13:28:11;3.03;;;2.53;;
80379;SDS011;69690;48.158;17.134;2023-07-20T13:33:13;3.58;;;2.47;;
80379;SDS011;69690;48.158;17.134;2023-07-20T13:38:14;4.03;;;2.87;;
80379;SDS011;69690;48.158;17.134;2023-07-20T13:43:16;4.00;;;3.05;;
80379;SDS011;69690;48.158;17.134;2023-07-20T13:48:17;5.53;;;2.92;;
80379;SDS011;69690;48.158;17.134;2023-07-20T13:53:21;3.53;;;2.62;;
80379;SDS011;69690;48.158;17.134;2023-07-20T13:58:23;2.65;;;2.40;;
80379;SDS011;69690;48.158;17.134;2023-07-20T14:03:27;3.62;;;2.70;;
80379;SDS011;69690;48.158;17.134;2023-07-20T14:08:28;2.80;;;2.55;;
80379;SDS011;69690;48.158;17.134;2023-07-20T14:13:30;3.12;;;2.50;;
80379;SDS011;69690;48.158;17.134;2023-07-20T14:18:32;3.30;;;2.72;;
80379;SDS011;69690;48.158;17.134;2023-07-20T14:23:34;4.43;;;2.40;;
80379;SDS011;69690;48.158;17.134;2023-07-20T14:28:36;3.15;;;2.72;;
80379;SDS011;69690;48.158;17.134;2023-07-20T14:33:38;3.75;;;2.10;;
80379;SDS011;69690;48.158;17.134;2023-07-20T14:38:40;3.33;;;2.22;;
80379;SDS011;69690;48.158;17.134;2023-07-20T14:43:41;3.97;;;2.33;;
80379;SDS011;69690;48.158;17.134;2023-07-20T14:48:42;2.50;;;2.30;;
80379;SDS011;69690;48.158;17.134;2023-07-20T14:53:43;3.62;;;2.15;;
80379;SDS011;69690;48.158;17.134;2023-07-20T14:58:45;2.30;;;2.00;;
80379;SDS011;69690;48.158;17.134;2023-07-20T15:03:46;5.68;;;2.45;;
80379;SDS011;69690;48.158;17.134;2023-07-20T15:08:47;3.75;;;2.50;;
80379;SDS011;69690;48.158;17.134;2023-07-20T15:13:48;2.22;;;2.03;;
80379;SDS011;69690;48.158;17.134;2023-07-20T15:18:50;2.10;;;1.83;;
80379;SDS011;69690;48.158;17.134;2023-07-20T15:23:51;2.30;;;2.10;;
80379;SDS011;69690;48.158;17.134;2023-07-20T15:28:52;2.53;;;2.25;;
80379;SDS011;69690;48.158;17.134;2023-07-20T15:33:53;1.92;;;1.83;;
80379;SDS011;69690;48.158;17.134;2023-07-20T15:38:55;2.55;;;2.17;;
80379;SDS011;69690;48.158;17.134;2023-07-20T15:43:56;2.35;;;2.15;;
80379;SDS011;69690;48.158;17.134;2023-07-20T15:48:57;2.28;;;2.08;;
80379;SDS011;69690;48.158;17.134;2023-07-20T15:53:59;2.42;;;2.22;;
80379;SDS011;69690;48.158;17.134;2023-07-20T15:59:00;3.83;;;2.12;;
80379;SDS011;69690;48.158;17.134;2023-07-20T16:04:01;2.20;;;1.92;;
80379;SDS011;69690;48.158;17.134;2023-07-20T16:09:03;2.67;;;2.47;;
80379;SDS011;69690;48.158;17.134;2023-07-20T16:14:05;2.53;;;2.10;;
80379;SDS011;69690;48.158;17.134;2023-07-20T16:19:07;3.53;;;2.45;;
80379;SDS011;69690;48.158;17.134;2023-07-20T16:24:08;3.12;;;2.20;;
80379;SDS011;69690;48.158;17.134;2023-07-20T16:29:11;2.45;;;2.25;;
80379;SDS011;69690;48.158;17.134;2023-07-20T16:34:12;3.60;;;2.37;;
80379;SDS011;69690;48.158;17.134;2023-07-20T16:39:14;2.50;;;2.30;;
80379;SDS011;69690;48.158;17.134;2023-07-20T16:44:18;2.33;;;2.03;;
80379;SDS011;69690;48.158;17.134;2023-07-20T16:49:19;3.28;;;2.40;;
80379;SDS011;69690;48.158;17.134;2023-07-20T16:54:20;4.20;;;2.35;;
80379;SDS011;69690;48.158;17.134;2023-07-20T16:59:22;2.72;;;2.50;;
80379;SDS011;69690;48.158;17.134;2023-07-20T17:04:23;4.05;;;2.60;;
80379;SDS011;69690;48.158;17.134;2023-07-20T17:09:25;2.40;;;2.20;;
80379;SDS011;69690;48.158;17.134;2023-07-20T17:14:27;2.33;;;2.12;;
80379;SDS011;69690;48.158;17.134;2023-07-20T17:19:29;2.45;;;2.10;;
80379;SDS011;69690;48.158;17.134;2023-07-20T17:24:30;3.37;;;2.33;;
80379;SDS011;69690;48.158;17.134;2023-07-20T17:29:32;2.17;;;1.98;;
80379;SDS011;69690;48.158;17.134;2023-07-20T17:34:33;2.58;;;2.37;;
80379;SDS011;69690;48.158;17.134;2023-07-20T17:39:35;3.47;;;2.40;;
80379;SDS011;69690;48.158;17.134;2023-07-20T17:44:36;4.10;;;2.95;;
80379;SDS011;69690;48.158;17.134;2023-07-20T17:49:38;2.83;;;2.53;;
80379;SDS011;69690;48.158;17.134;2023-07-20T17:54:39;2.55;;;2.33;;
80379;SDS011;69690;48.158;17.134;2023-07-20T17:59:40;3.85;;;2.50;;
80379;SDS011;69690;48.158;17.134;2023-07-20T18:04:43;3.83;;;2.35;;
80379;SDS011;69690;48.158;17.134;2023-07-20T18:09:44;2.65;;;2.30;;
80379;SDS011;69690;48.158;17.134;2023-07-20T18:14:46;5.15;;;2.85;;
80379;SDS011;69690;48.158;17.134;2023-07-20T18:19:47;3.47;;;3.17;;
80379;SDS011;69690;48.158;17.134;2023-07-20T18:24:49;3.92;;;3.00;;
80379;SDS011;69690;48.158;17.134;2023-07-20T18:29:51;3.75;;;2.85;;
80379;SDS011;69690;48.158;17.134;2023-07-20T18:34:52;3.85;;;2.47;;
80379;SDS011;69690;48.158;17.134;2023-07-20T18:39:54;4.05;;;3.10;;
80379;SDS011;69690;48.158;17.134;2023-07-20T18:44:55;5.53;;;3.25;;
80379;SDS011;69690;48.158;17.134;2023-07-20T18:49:56;4.65;;;3.00;;
80379;SDS011;69690;48.158;17.134;2023-07-20T18:54:58;3.33;;;3.08;;
80379;SDS011;69690;48.158;17.134;2023-07-20T19:00:00;12.40;;;7.55;;
80379;SDS011;69690;48.158;17.134;2023-07-20T19:05:02;6.05;;;5.05;;
80379;SDS011;69690;48.158;17.134;2023-07-20T19:10:04;7.62;;;4.87;;
80379;SDS011;69690;48.158;17.134;2023-07-20T19:15:07;5.87;;;4.12;;
80379;SDS011;69690;48.158;17.134;2023-07-20T19:20:10;4.32;;;3.90;;
80379;SDS011;69690;48.158;17.134;2023-07-20T19:25:15;5.75;;;3.62;;
80379;SDS011;69690;48.158;17.134;2023-07-20T19:30:16;4.97;;;3.35;;
80379;SDS011;69690;48.158;17.134;2023-07-20T19:35:17;3.85;;;3.20;;
80379;SDS011;69690;48.158;17.134;2023-07-20T19:40:19;3.00;;;2.58;;
80379;SDS011;69690;48.158;17.134;2023-07-20T19:45:20;4.03;;;3.45;;
80379;SDS011;69690;48.158;17.134;2023-07-20T19:50:22;4.03;;;3.58;;
80379;SDS011;69690;48.158;17.134;2023-07-20T19:55:23;4.60;;;3.75;;
80379;SDS011;69690;48.158;17.134;2023-07-20T20:00:24;6.28;;;3.83;;
80379;SDS011;69690;48.158;17.134;2023-07-20T20:05:27;6.87;;;3.62;;
80379;SDS011;69690;48.158;17.134;2023-07-20T20:10:30;3.87;;;3.35;;
80379;SDS011;69690;48.158;17.134;2023-07-20T20:15:33;4.78;;;3.50;;
80379;SDS011;69690;48.158;17.134;2023-07-20T20:20:34;4.22;;;3.47;;
80379;SDS011;69690;48.158;17.134;2023-07-20T20:25:39;3.85;;;3.47;;
80379;SDS011;69690;48.158;17.134;2023-07-20T20:30:40;3.90;;;3.08;;
80379;SDS011;69690;48.158;17.134;2023-07-20T20:35:41;3.90;;;2.87;;
80379;SDS011;69690;48.158;17.134;2023-07-20T20:40:44;3.40;;;3.10;;
80379;SDS011;69690;48.158;17.134;2023-07-20T20:45:51;4.55;;;2.87;;
80379;SDS011;69690;48.158;17.134;2023-07-20T20:50:52;6.90;;;3.10;;
80379;SDS011;69690;48.158;17.134;2023-07-20T20:55:54;4.87;;;3.17;;
80379;SDS011;69690;48.158;17.134;2023-07-20T21:00:59;4.50;;;4.10;;
80379;SDS011;69690;48.158;17.134;2023-07-20T21:06:03;4.95;;;3.47;;
80379;SDS011;69690;48.158;17.134;2023-07-20T21:11:05;5.05;;;3.28;;
80379;SDS011;69690;48.158;17.134;2023-07-20T21:16:08;4.07;;;2.92;;
80379;SDS011;69690;48.158;17.134;2023-07-20T21:21:09;2.95;;;2.42;;
80379;SDS011;69690;48.158;17.134;2023-07-20T21:26:10;4.18;;;2.87;;
80379;SDS011;69690;48.158;17.134;2023-07-20T21:31:11;4.60;;;2.53;;
80379;SDS011;69690;48.158;17.134;2023-07-20T21:36:16;6.28;;;2.95;;
80379;SDS011;69690;48.158;17.134;2023-07-20T21:41:17;3.53;;;2.58;;
80379;SDS011;69690;48.158;17.134;2023-07-20T21:46:19;5.72;;;2.40;;
80379;SDS011;69690;48.158;17.134;2023-07-20T21:51:20;2.53;;;2.17;;
80379;SDS011;69690;48.158;17.134;2023-07-20T21:56:22;3.25;;;2.20;;
80379;SDS011;69690;48.158;17.134;2023-07-20T22:01:23;3.17;;;2.30;;
80379;SDS011;69690;48.158;17.134;2023-07-20T22:06:24;4.75;;;2.70;;
80379;SDS011;69690;48.158;17.134;2023-07-20T22:11:25;4.43;;;2.35;;
80379;SDS011;69690;48.158;17.134;2023-07-20T22:16:27;3.40;;;2.30;;
80379;SDS011;69690;48.158;17.134;2023-07-20T22:21:31;5.32;;;2.78;;
80379;SDS011;69690;48.158;17.134;2023-07-20T22:26:33;2.90;;;2.62;;
80379;SDS011;69690;48.158;17.134;2023-07-20T22:31:34;5.43;;;2.60;;
80379;SDS011;69690;48.158;17.134;2023-07-20T22:36:36;4.68;;;2.42;;
80379;SDS011;69690;48.158;17.134;2023-07-20T22:41:37;4.87;;;2.50;;
80379;SDS011;69690;48.158;17.134;2023-07-20T22:46:38;5.47;;;2.45;;
80379;SDS011;69690;48.158;17.134;2023-07-20T22:56:47;2.92;;;2.25;;
80379;SDS011;69690;48.158;17.134;2023-07-20T23:01:49;4.55;;;2.47;;
80379;SDS011;69690;48.158;17.134;2023-07-20T23:06:50;3.10;;;2.30;;
80379;SDS011;69690;48.158;17.134;2023-07-20T23:11:51;2.28;;;2.08;;
80379;SDS011;69690;48.158;17.134;2023-07-20T23:16:53;3.87;;;2.12;;
80379;SDS011;69690;48.158;17.134;2023-07-20T23:21:54;3.25;;;2.35;;
80379;SDS011;69690;48.158;17.134;2023-07-20T23:26:57;3.33;;;2.28;;
80379;SDS011;69690;48.158;17.134;2023-07-20T23:31:59;3.00;;;2.33;;
80379;SDS011;69690;48.158;17.134;2023-07-20T23:37:01;3.53;;;2.20;;
80379;SDS011;69690;48.158;17.134;2023-07-20T23:42:02;7.50;;;6.60;;
80379;SDS011;69690;48.158;17.134;2023-07-20T23:47:04;18.05;;;16.42;;
80379;SDS011;69690;48.158;17.134;2023-07-20T23:52:08;18.12;;;16.52;;
80379;SDS011;69690;48.158;17.134;2023-07-20T23:57:12;13.43;;;12.30;;
